Time;durP1;ratioP1;P1;durP2;ratioP2;P2;SDS_P1;SDS_P2;PMS_P1;PMS_P2;Temp;Humidity;BMP_temperature;BMP_pressure;BME280_temperature;BME280_humidity;BME280_pressure;Samples;Min_cycle;Max_cycle;Signal;HPM_P1;HPM_P2
2022/04/22 00:00:48;;;;;;;5.10;4.13;;;10.10;99.90;;;;;;5053520;28;20197;-84
2022/04/22 00:03:16;;;;;;;4.18;3.78;;;10.10;99.90;;;;;;5071134;28;20226;-84
2022/04/22 00:05:45;;;;;;;4.70;3.75;;;10.10;99.90;;;;;;5074218;28;20259;-83
2022/04/22 00:08:14;;;;;;;5.90;3.90;;;10.10;99.90;;;;;;5073957;28;20255;-84
2022/04/22 00:13:26;;;;;;;4.72;4.32;;;10.00;99.90;;;;;;5052672;28;20289;-84
2022/04/22 00:15:54;;;;;;;4.35;3.95;;;10.00;99.90;;;;;;5054130;28;20248;-84
2022/04/22 00:18:23;;;;;;;5.35;4.75;;;10.00;99.90;;;;;;5053533;28;20198;-84
2022/04/22 00:20:52;;;;;;;4.93;4.00;;;9.90;99.90;;;;;;5053757;28;20210;-83
2022/04/22 00:23:20;;;;;;;3.58;3.33;;;9.90;99.90;;;;;;5053204;28;20257;-83
2022/04/22 00:25:49;;;;;;;3.65;3.35;;;9.90;99.90;;;;;;5053355;28;20206;-84
2022/04/22 00:28:17;;;;;;;4.05;3.65;;;9.90;99.90;;;;;;5053343;28;20194;-84
2022/04/22 00:30:47;;;;;;;4.95;4.15;;;9.90;99.90;;;;;;5053136;28;20214;-84
2022/04/22 00:33:16;;;;;;;3.35;3.08;;;9.90;99.90;;;;;;5053705;28;20271;-83
2022/04/22 00:35:45;;;;;;;4.28;3.90;;;9.90;99.90;;;;;;5053400;28;20197;-83
2022/04/22 00:38:14;;;;;;;4.35;3.92;;;9.90;99.90;;;;;;5053755;28;20271;-83
2022/04/22 00:40:43;;;;;;;4.70;4.25;;;9.90;99.90;;;;;;5035125;28;20194;-84
2022/04/22 00:43:16;;;;;;;3.85;3.25;;;9.90;99.90;;;;;;5053055;28;20313;-84
2022/04/22 00:45:46;;;;;;;5.85;3.95;;;9.90;99.90;;;;;;5053315;28;20194;-83
2022/04/22 00:48:15;;;;;;;4.53;4.13;;;9.80;99.90;;;;;;5053446;28;20206;-83
2022/04/22 00:50:44;;;;;;;5.03;4.53;;;9.80;99.90;;;;;;5052728;28;20285;-83
2022/04/22 00:53:13;;;;;;;4.20;3.90;;;9.70;99.90;;;;;;5052938;28;20277;-83
2022/04/22 00:55:44;;;;;;;4.45;4.05;;;9.70;99.90;;;;;;5053005;28;20198;-84
2022/04/22 00:58:13;;;;;;;3.60;3.38;;;9.60;99.90;;;;;;5053422;28;20301;-83
2022/04/22 01:00:41;;;;;;;5.47;4.93;;;9.60;99.90;;;;;;5052393;28;20253;-83
2022/04/22 01:03:11;;;;;;;15.15;4.13;;;9.60;99.90;;;;;;5052775;28;20218;-83
2022/04/22 01:11:12;;;;;;;3.45;3.25;;;9.60;99.90;;;;;;5052594;28;20304;-83
2022/04/22 01:13:40;;;;;;;4.25;3.75;;;9.50;99.90;;;;;;5052825;28;20222;-83
2022/04/22 01:16:08;;;;;;;3.97;3.60;;;9.50;99.90;;;;;;5053069;28;20229;-84
2022/04/22 01:18:38;;;;;;;4.50;4.10;;;9.50;99.90;;;;;;5052734;28;20297;-83
2022/04/22 01:21:08;;;;;;;4.78;3.25;;;9.50;99.90;;;;;;5052230;28;20309;-83
2022/04/22 01:23:36;;;;;;;9.65;3.92;;;9.50;99.90;;;;;;5052335;28;20241;-83
2022/04/22 01:26:06;;;;;;;8.20;4.38;;;9.50;99.90;;;;;;5052501;28;20292;-83
2022/04/22 01:28:35;;;;;;;4.07;3.78;;;9.40;99.90;;;;;;5052344;28;20197;-84
2022/04/22 01:31:03;;;;;;;4.60;4.20;;;9.40;99.90;;;;;;5052035;28;20241;-84
2022/04/22 01:33:32;;;;;;;4.90;4.50;;;9.30;99.90;;;;;;5052121;28;20205;-84
2022/04/22 01:36:01;;;;;;;4.88;4.10;;;9.30;99.90;;;;;;5052171;28;20213;-83
2022/04/22 01:38:31;;;;;;;3.80;3.50;;;9.30;99.90;;;;;;5051945;28;20193;-83
2022/04/22 01:40:59;;;;;;;4.65;4.25;;;9.20;99.90;;;;;;5052500;28;20221;-84
2022/04/22 01:43:28;;;;;;;4.47;4.10;;;9.20;99.90;;;;;;5052020;28;20301;-84
2022/04/22 01:45:56;;;;;;;4.28;3.92;;;9.20;99.90;;;;;;5052533;28;20269;-84
2022/04/22 01:48:24;;;;;;;5.07;4.65;;;9.20;99.90;;;;;;5052039;28;20225;-84
2022/04/22 01:50:53;;;;;;;5.07;4.68;;;9.20;99.90;;;;;;5052100;28;20213;-84
2022/04/22 01:53:21;;;;;;;4.35;4.05;;;9.20;99.90;;;;;;5052250;28;20247;-84
2022/04/22 01:55:51;;;;;;;8.05;4.97;;;9.20;99.90;;;;;;5052517;28;20201;-84
2022/04/22 01:58:19;;;;;;;4.80;4.40;;;9.10;99.90;;;;;;5052312;28;20229;-84
2022/04/22 02:00:48;;;;;;;4.32;4.00;;;9.10;99.90;;;;;;5051853;28;20255;-84
2022/04/22 02:03:16;;;;;;;5.65;5.13;;;9.10;99.90;;;;;;5051648;28;20241;-84
2022/04/22 02:05:46;;;;;;;5.25;4.50;;;9.10;99.90;;;;;;5052215;28;20273;-84
2022/04/22 02:08:15;;;;;;;6.28;5.18;;;9.10;99.90;;;;;;5051822;28;20190;-84
2022/04/22 02:10:43;;;;;;;7.13;4.30;;;9.10;99.90;;;;;;5052031;28;20232;-83
2022/04/22 02:13:13;;;;;;;6.15;4.80;;;9.10;99.90;;;;;;5052010;28;20205;-84
2022/04/22 02:15:41;;;;;;;5.15;4.30;;;9.10;99.90;;;;;;5052376;28;20206;-84
2022/04/22 02:18:10;;;;;;;4.40;4.10;;;9.10;99.90;;;;;;5052073;28;20210;-84
2022/04/22 02:20:38;;;;;;;5.15;4.57;;;9.10;99.90;;;;;;5051762;28;20202;-83
2022/04/22 02:23:06;;;;;;;5.28;4.82;;;9.00;99.90;;;;;;5051514;28;20226;-84
2022/04/22 02:25:35;;;;;;;5.60;5.00;;;9.00;99.90;;;;;;5052127;28;20297;-84
2022/04/22 02:30:51;;;;;;;4.95;4.55;;;9.00;99.90;;;;;;5051185;28;20260;-84
2022/04/22 02:33:19;;;;;;;7.88;5.63;;;9.00;99.90;;;;;;5052230;28;20212;-84
2022/04/22 02:35:48;;;;;;;4.60;4.20;;;9.00;99.90;;;;;;5051395;28;20270;-84
2022/04/22 02:38:16;;;;;;;5.05;4.65;;;9.10;99.90;;;;;;5051917;28;20249;-84
2022/04/22 02:46:17;;;;;;;4.95;4.55;;;9.10;99.90;;;;;;5051501;28;20201;-83
2022/04/22 02:48:46;;;;;;;6.57;5.00;;;9.10;99.90;;;;;;5053956;28;20212;-83
2022/04/22 02:51:14;;;;;;;5.50;4.95;;;9.20;99.90;;;;;;5054933;28;20225;-84
2022/04/22 02:53:42;;;;;;;4.28;3.97;;;9.20;99.90;;;;;;5055313;28;20228;-84
2022/04/22 02:56:11;;;;;;;6.85;5.47;;;9.20;99.90;;;;;;5054828;28;20232;-84
2022/04/22 02:58:42;;;;;;;5.15;4.65;;;9.20;99.90;;;;;;5055529;28;20225;-84
2022/04/22 03:01:10;;;;;;;4.55;4.13;;;9.20;99.90;;;;;;5054588;28;20289;-84
2022/04/22 03:03:40;;;;;;;5.30;4.80;;;9.30;99.90;;;;;;5054940;28;20201;-85
2022/04/22 03:06:08;;;;;;;4.32;3.92;;;9.30;99.90;;;;;;5055447;28;20202;-84
2022/04/22 03:08:37;;;;;;;14.35;4.95;;;9.30;99.90;;;;;;5055153;28;20206;-84
2022/04/22 03:11:05;;;;;;;4.28;3.92;;;9.40;99.90;;;;;;5054563;28;20242;-85
2022/04/22 03:13:34;;;;;;;4.88;4.47;;;9.40;99.90;;;;;;5055169;28;20205;-84
2022/04/22 03:16:04;;;;;;;4.65;4.20;;;9.50;99.90;;;;;;5054753;28;20231;-84
2022/04/22 03:18:32;;;;;;;5.80;5.30;;;9.50;99.90;;;;;;5054905;28;20296;-84
2022/04/22 03:21:02;;;;;;;4.80;4.38;;;9.60;99.90;;;;;;5054310;28;20222;-84
2022/04/22 03:23:31;;;;;;;5.53;4.75;;;9.60;99.90;;;;;;5054835;28;20297;-84
2022/04/22 03:25:59;;;;;;;5.78;5.05;;;9.60;99.90;;;;;;5054627;28;20198;-83
2022/04/22 03:28:28;;;;;;;6.18;4.72;;;9.70;99.90;;;;;;5054697;28;20292;-84
2022/04/22 03:30:56;;;;;;;5.03;4.63;;;9.70;99.90;;;;;;5054064;28;20230;-83
2022/04/22 03:33:25;;;;;;;5.47;4.97;;;9.70;99.90;;;;;;5054611;28;20210;-83
2022/04/22 03:35:53;;;;;;;5.10;4.60;;;9.70;99.90;;;;;;5054408;28;20284;-83
2022/04/22 03:38:24;;;;;;;4.82;4.40;;;9.70;99.90;;;;;;5054793;28;20292;-84
2022/04/22 03:40:53;;;;;;;6.45;5.63;;;9.70;99.90;;;;;;5054117;28;20237;-84
2022/04/22 03:43:23;;;;;;;6.18;4.93;;;9.70;99.90;;;;;;5054424;28;20210;-83
2022/04/22 03:45:52;;;;;;;5.38;4.85;;;9.70;99.90;;;;;;5053931;28;20285;-83
2022/04/22 03:48:20;;;;;;;5.72;5.22;;;9.70;99.90;;;;;;5054051;28;20229;-83
2022/04/22 03:50:48;;;;;;;4.97;4.60;;;9.80;99.90;;;;;;5053660;28;20198;-84
2022/04/22 03:53:17;;;;;;;9.25;5.32;;;9.80;99.90;;;;;;5054548;28;20265;-83
2022/04/22 03:55:47;;;;;;;4.90;4.50;;;9.80;99.90;;;;;;5053467;28;20230;-83
2022/04/22 03:58:16;;;;;;;5.63;5.03;;;9.80;99.90;;;;;;5054383;28;20277;-84
2022/04/22 04:00:46;;;;;;;6.07;5.57;;;9.80;99.90;;;;;;5053053;28;20286;-84
2022/04/22 04:03:16;;;;;;;5.47;4.93;;;9.90;99.90;;;;;;5053812;28;20271;-84
2022/04/22 04:05:49;;;;;;;4.72;4.35;;;9.90;99.90;;;;;;5051007;28;20305;-83
2022/04/22 04:08:20;;;;;;;6.32;4.70;;;9.90;99.90;;;;;;5053872;28;20214;-83
2022/04/22 04:16:24;;;;;;;6.47;4.90;;;9.90;99.90;;;;;;5053227;28;20293;-84
2022/04/22 04:23:14;;;;;;;5.68;5.18;;;9.90;99.90;;;;;;5053711;28;20232;-84
2022/04/22 04:24:26;;;;;;;7.22;6.53;;;10.00;99.90;;;;;;5053454;28;20308;-84
2022/04/22 04:26:56;;;;;;;4.65;4.25;;;10.00;99.90;;;;;;5053850;28;20233;-83
2022/04/22 04:29:26;;;;;;;5.95;5.45;;;10.00;99.90;;;;;;5053225;28;20256;-84
2022/04/22 04:31:55;;;;;;;5.93;5.35;;;10.10;99.90;;;;;;5053397;28;20213;-84
2022/04/22 04:34:24;;;;;;;5.60;5.03;;;10.10;99.90;;;;;;5053515;28;20206;-83
2022/04/22 04:36:52;;;;;;;12.85;5.90;;;10.10;99.90;;;;;;5053623;28;20270;-83
2022/04/22 04:39:20;;;;;;;9.10;6.10;;;10.20;99.90;;;;;;5053872;28;20253;-83
2022/04/22 04:41:49;;;;;;;5.80;5.30;;;10.20;99.90;;;;;;5053078;28;20257;-84
2022/04/22 04:44:19;;;;;;;5.53;5.07;;;10.20;99.90;;;;;;5053161;28;20202;-84
2022/04/22 04:46:47;;;;;;;5.75;5.03;;;10.30;99.90;;;;;;5053174;28;20202;-84
2022/04/22 04:49:21;;;;;;;6.60;5.97;;;10.30;99.90;;;;;;5053082;28;20197;-84
2022/04/22 04:51:50;;;;;;;6.57;5.97;;;10.30;99.90;;;;;;5052969;28;20288;-84
2022/04/22 04:54:18;;;;;;;5.95;5.43;;;10.30;99.90;;;;;;5052845;28;20229;-84
2022/04/22 04:56:46;;;;;;;6.10;5.50;;;10.30;99.90;;;;;;5053182;28;20244;-84
2022/04/22 04:59:16;;;;;;;6.13;5.60;;;10.30;99.90;;;;;;5053214;28;20206;-83
2022/04/22 05:01:46;;;;;;;7.15;6.47;;;10.20;99.90;;;;;;5052571;28;20244;-84
2022/04/22 05:04:14;;;;;;;7.93;6.75;;;10.20;99.90;;;;;;5052525;28;20216;-84
2022/04/22 05:06:43;;;;;;;9.10;6.75;;;10.20;99.90;;;;;;5052592;28;20312;-84
2022/04/22 05:09:11;;;;;;;6.20;5.65;;;10.20;99.90;;;;;;5052746;28;20237;-83
2022/04/22 05:11:39;;;;;;;6.90;5.70;;;10.20;99.90;;;;;;5051853;28;20312;-83
2022/04/22 05:14:08;;;;;;;9.65;6.97;;;10.20;99.90;;;;;;5052819;28;20258;-83
2022/04/22 05:16:36;;;;;;;7.63;6.25;;;10.10;99.90;;;;;;5052782;28;20261;-83
2022/04/22 05:19:06;;;;;;;7.43;6.68;;;10.20;99.90;;;;;;5052290;28;20202;-84
2022/04/22 05:21:34;;;;;;;7.57;5.82;;;10.20;99.90;;;;;;5052142;28;20260;-84
2022/04/22 05:24:02;;;;;;;9.73;6.63;;;10.20;99.90;;;;;;5052724;28;20206;-83
2022/04/22 05:26:31;;;;;;;6.55;5.90;;;10.30;99.90;;;;;;5052615;28;20222;-84
2022/04/22 05:28:59;;;;;;;11.35;7.00;;;10.30;99.90;;;;;;5052180;28;20222;-84
2022/04/22 05:34:14;;;;;;;7.53;6.75;;;10.40;99.90;;;;;;5052317;28;20213;-83
2022/04/22 05:36:43;;;;;;;7.80;6.25;;;10.40;99.90;;;;;;5052300;28;20186;-84
2022/04/22 05:39:11;;;;;;;7.68;6.80;;;10.50;99.90;;;;;;5052710;28;20289;-85
2022/04/22 05:41:39;;;;;;;8.13;6.00;;;10.40;99.90;;;;;;5051383;28;20293;-85
2022/04/22 05:44:08;;;;;;;7.60;6.00;;;10.40;99.90;;;;;;5049216;28;20234;-86
2022/04/22 05:46:36;;;;;;;9.23;6.07;;;10.50;99.90;;;;;;5053043;28;20221;-84
2022/04/22 05:49:05;;;;;;;7.97;7.18;;;10.50;99.90;;;;;;5057873;28;20261;-84
2022/04/22 05:51:34;;;;;;;6.15;5.55;;;10.50;99.90;;;;;;5061505;28;20228;-84
2022/04/22 05:54:03;;;;;;;7.10;5.80;;;10.40;99.90;;;;;;5064149;28;20205;-84
2022/04/22 05:56:31;;;;;;;6.65;6.03;;;10.40;99.90;;;;;;5052454;28;20206;-84
2022/04/22 05:59:00;;;;;;;9.68;6.60;;;10.40;99.90;;;;;;5052224;28;20297;-84
2022/04/22 06:01:28;;;;;;;8.23;6.85;;;10.40;99.90;;;;;;5051720;28;20280;-84
2022/04/22 06:03:56;;;;;;;6.90;6.22;;;10.40;99.90;;;;;;5052545;28;20201;-84
2022/04/22 06:06:25;;;;;;;9.68;6.70;;;10.40;99.90;;;;;;5051742;28;20217;-84
2022/04/22 06:11:40;;;;;;;6.57;5.90;;;10.40;99.90;;;;;;5032169;28;20234;-84
2022/04/22 06:14:09;;;;;;;7.68;6.97;;;10.50;99.90;;;;;;5031947;28;20285;-84
2022/04/22 06:16:39;;;;;;;7.65;6.70;;;10.50;99.90;;;;;;5032280;28;20257;-84
2022/04/22 06:19:07;;;;;;;7.72;6.93;;;10.40;99.90;;;;;;5032717;28;20214;-85
2022/04/22 06:21:38;;;;;;;7.40;6.68;;;10.40;99.90;;;;;;5034309;28;20226;-84
2022/04/22 06:24:08;;;;;;;8.32;7.22;;;10.40;99.90;;;;;;5054881;28;20205;-84
2022/04/22 06:26:37;;;;;;;7.22;6.53;;;10.30;99.90;;;;;;5055510;28;20310;-84
2022/04/22 06:29:06;;;;;;;8.68;7.13;;;10.20;99.90;;;;;;5056068;28;20201;-84
2022/04/22 06:31:35;;;;;;;7.95;7.18;;;10.20;99.90;;;;;;5055717;28;20257;-83
2022/04/22 06:34:04;;;;;;;7.65;7.05;;;10.20;99.90;;;;;;5055792;28;20202;-84
2022/04/22 06:36:33;;;;;;;9.43;7.97;;;10.10;99.90;;;;;;5055579;28;20225;-83
2022/04/22 06:39:03;;;;;;;8.27;7.47;;;10.10;99.90;;;;;;5055204;28;20290;-84
2022/04/22 06:47:06;;;;;;;8.88;8.00;;;9.90;99.90;;;;;;5034747;28;20230;-84
2022/04/22 06:49:34;;;;;;;8.75;7.43;;;9.90;99.90;;;;;;5055721;28;20274;-83
2022/04/22 06:52:05;;;;;;;9.77;8.15;;;9.90;99.90;;;;;;5055215;28;20225;-84
2022/04/22 06:54:34;;;;;;;7.57;6.85;;;9.90;99.90;;;;;;5054825;28;20202;-83
2022/04/22 06:57:05;;;;;;;9.25;7.82;;;10.00;99.90;;;;;;5055222;28;20212;-83
2022/04/22 06:59:35;;;;;;;10.63;8.20;;;10.00;99.90;;;;;;5055039;28;20225;-84
2022/04/22 07:02:04;;;;;;;12.30;7.72;;;10.00;99.90;;;;;;5054743;28;20252;-84
2022/04/22 07:04:33;;;;;;;7.57;6.85;;;10.00;99.90;;;;;;5054340;28;20213;-84
2022/04/22 07:07:03;;;;;;;10.85;8.90;;;10.00;99.90;;;;;;5054798;28;20225;-83
2022/04/22 07:09:32;;;;;;;8.50;7.63;;;9.90;99.90;;;;;;5054089;28;20256;-83
2022/04/22 07:12:02;;;;;;;17.08;9.38;;;9.80;99.90;;;;;;5070596;28;20354;-83
2022/04/22 07:14:33;;;;;;;10.15;8.75;;;9.80;99.90;;;;;;5055987;28;20327;-84
2022/04/22 07:17:03;;;;;;;11.70;8.05;;;9.70;99.90;;;;;;5054228;28;20221;-84
2022/04/22 07:19:32;;;;;;;8.80;8.00;;;9.70;99.90;;;;;;5054925;28;20284;-83
2022/04/22 07:22:00;;;;;;;8.85;8.05;;;9.60;99.90;;;;;;5053795;28;20264;-85
2022/04/22 07:24:29;;;;;;;12.48;9.35;;;9.50;99.90;;;;;;5040205;28;20289;-85
2022/04/22 07:26:58;;;;;;;10.20;9.18;;;9.40;99.90;;;;;;5054354;28;20226;-86
2022/04/22 07:29:28;;;;;;;13.60;8.93;;;9.30;99.90;;;;;;5054579;28;20205;-84
2022/04/22 07:31:58;;;;;;;10.00;9.07;;;9.20;99.90;;;;;;5054155;28;20225;-86
2022/04/22 07:34:27;;;;;;;11.55;9.65;;;9.10;99.90;;;;;;5053437;28;20202;-86
2022/04/22 07:36:56;;;;;;;12.80;10.35;;;9.10;99.90;;;;;;5054911;28;20225;-87
2022/04/22 07:39:24;;;;;;;11.45;9.40;;;9.00;99.90;;;;;;5055273;28;20276;-88
2022/04/22 07:41:56;;;;;;;10.93;9.82;;;9.00;99.90;;;;;;5054434;28;20229;-88
2022/04/22 07:47:13;;;;;;;10.50;9.50;;;9.00;99.90;;;;;;5053637;28;20300;-86
2022/04/22 07:49:42;;;;;;;10.40;9.40;;;8.90;99.90;;;;;;5053946;28;20222;-87
2022/04/22 07:52:10;;;;;;;12.00;10.82;;;8.90;99.90;;;;;;5054076;28;20232;-86
2022/04/22 07:54:38;;;;;;;12.50;10.25;;;8.80;99.90;;;;;;5053226;28;20237;-87
2022/04/22 07:57:07;;;;;;;10.93;9.90;;;8.80;99.90;;;;;;5053872;28;20198;-87
2022/04/22 07:59:35;;;;;;;9.70;8.77;;;8.70;99.90;;;;;;5053593;28;20296;-87
2022/04/22 08:02:04;;;;;;;21.80;10.93;;;8.70;99.90;;;;;;5059275;28;20241;-87
2022/04/22 08:04:35;;;;;;;10.23;9.23;;;8.70;99.90;;;;;;5074174;28;20203;-87
2022/04/22 08:07:05;;;;;;;11.20;10.10;;;8.70;99.90;;;;;;5060301;28;20218;-87
2022/04/22 08:09:52;;;;;;;10.98;9.73;;;8.80;99.90;;;;;;5054263;28;20228;-87
2022/04/22 08:12:21;;;;;;;11.48;10.40;;;8.90;99.90;;;;;;5053549;28;20310;-87
2022/04/22 08:14:57;;;;;;;11.70;10.60;;;8.90;99.90;;;;;;5054238;28;20324;-86
2022/04/22 08:17:26;;;;;;;11.80;10.05;;;8.90;99.90;;;;;;5053905;28;20201;-86
2022/04/22 08:19:55;;;;;;;13.00;11.07;;;8.90;99.90;;;;;;5072717;28;20224;-87
2022/04/22 08:22:24;;;;;;;12.95;11.63;;;9.00;99.90;;;;;;5073181;28;20305;-86
2022/04/22 08:24:52;;;;;;;12.88;10.93;;;9.00;99.90;;;;;;5073586;28;20201;-87
2022/04/22 08:27:21;;;;;;;13.63;11.55;;;9.00;99.90;;;;;;5066299;28;20305;-87
2022/04/22 08:29:49;;;;;;;13.77;10.90;;;9.00;99.90;;;;;;5053584;28;20229;-87
2022/04/22 08:32:18;;;;;;;15.10;12.27;;;9.00;99.90;;;;;;5052677;28;20224;-87
2022/04/22 08:34:46;;;;;;;13.68;12.23;;;9.00;99.90;;;;;;5065767;28;20250;-88
2022/04/22 08:37:17;;;;;;;13.73;11.50;;;8.90;99.90;;;;;;5073224;28;20311;-88
2022/04/22 08:39:45;;;;;;;13.82;12.43;;;9.00;99.90;;;;;;5073348;28;20215;-88
2022/04/22 08:42:15;;;;;;;19.83;13.10;;;9.00;99.90;;;;;;5057866;28;20245;-88
2022/04/22 08:45:03;;;;;;;13.07;11.30;;;9.10;99.90;;;;;;5053699;28;20204;-88
2022/04/22 08:50:18;;;;;;;14.05;12.05;;;9.20;99.90;;;;;;5052965;28;20208;-88
2022/04/22 08:52:55;;;;;;;13.32;12.10;;;9.20;99.90;;;;;;5051983;28;20236;-88
2022/04/22 08:55:26;;;;;;;13.82;11.07;;;9.30;99.90;;;;;;5052977;28;20297;-88
2022/04/22 08:57:55;;;;;;;14.05;12.45;;;9.30;99.90;;;;;;5058646;28;20208;-88
2022/04/22 09:00:26;;;;;;;12.48;10.75;;;9.30;99.90;;;;;;5072802;28;20292;-88
2022/04/22 09:02:56;;;;;;;13.23;11.55;;;9.30;99.90;;;;;;5073126;28;20225;-88
2022/04/22 09:05:26;;;;;;;12.60;11.15;;;9.30;99.90;;;;;;5072923;28;20204;-88
2022/04/22 09:07:57;;;;;;;10.98;9.98;;;9.30;99.90;;;;;;5072884;28;20228;-88
2022/04/22 09:10:25;;;;;;;10.88;9.88;;;9.40;99.90;;;;;;5064534;28;20316;-87
2022/04/22 09:12:54;;;;;;;10.55;9.65;;;9.40;99.90;;;;;;5052786;28;20225;-87
2022/04/22 09:15:24;;;;;;;10.77;9.80;;;9.40;99.90;;;;;;5051404;28;20229;-87
2022/04/22 09:17:57;;;;;;;11.82;10.60;;;9.40;99.90;;;;;;5052347;28;20261;-88
2022/04/22 09:20:30;;;;;;;11.02;9.93;;;9.50;99.90;;;;;;5052392;28;20244;-87
2022/04/22 09:23:00;;;;;;;14.57;10.82;;;9.50;99.90;;;;;;5052369;28;20233;-88
2022/04/22 09:25:30;;;;;;;11.55;10.45;;;9.60;99.90;;;;;;5052775;28;20209;-86
2022/04/22 09:28:10;;;;;;;14.45;10.95;;;9.60;99.90;;;;;;5051973;28;20220;-86
2022/04/22 09:30:41;;;;;;;13.23;11.68;;;9.60;99.90;;;;;;5051494;28;20224;-86
2022/04/22 09:33:10;;;;;;;12.15;10.95;;;9.70;99.90;;;;;;5052355;28;20214;-86
2022/04/22 09:44:15;;;;;;;11.63;10.50;;;9.90;99.90;;;;;;5010860;28;20301;-86
2022/04/22 09:46:43;;;;;;;11.88;10.73;;;10.00;99.90;;;;;;5059860;28;20307;-86
2022/04/22 09:49:40;;;;;;;12.52;11.35;;;10.00;99.90;;;;;;5072206;28;20197;-86
2022/04/22 09:52:08;;;;;;;12.50;11.32;;;10.00;99.90;;;;;;5071926;28;20252;-86
2022/04/22 09:54:39;;;;;;;13.68;12.18;;;10.10;99.90;;;;;;5058811;28;20233;-86
2022/04/22 09:57:27;;;;;;;12.05;10.88;;;10.10;99.90;;;;;;5052222;28;20208;-86
2022/04/22 09:59:56;;;;;;;12.85;11.65;;;10.20;99.90;;;;;;5056296;28;20240;-86
2022/04/22 10:02:27;;;;;;;12.57;11.23;;;10.20;99.90;;;;;;5056305;28;20225;-86
2022/04/22 10:04:57;;;;;;;13.30;11.90;;;10.30;99.90;;;;;;5056718;28;20209;-86
2022/04/22 10:07:30;;;;;;;23.52;12.68;;;10.20;99.90;;;;;;5056080;28;20313;-86
2022/04/22 10:10:03;;;;;;;12.27;11.20;;;10.20;99.90;;;;;;5056220;28;20297;-86
2022/04/22 10:12:32;;;;;;;13.35;11.70;;;10.20;99.90;;;;;;5055747;28;20260;-86
2022/04/22 10:15:03;;;;;;;15.55;12.18;;;10.10;99.90;;;;;;5055894;28;20381;-86
2022/04/22 10:17:33;;;;;;;11.73;10.63;;;10.10;99.90;;;;;;5055781;28;20233;-86
2022/04/22 10:20:03;;;;;;;12.63;11.25;;;10.10;99.90;;;;;;5056187;28;20298;-86
2022/04/22 10:22:33;;;;;;;11.65;10.55;;;10.00;99.90;;;;;;5055533;28;20316;-86
2022/04/22 10:25:06;;;;;;;13.30;12.07;;;9.90;99.90;;;;;;5055907;28;20293;-87
2022/04/22 10:27:36;;;;;;;13.00;11.80;;;9.90;99.90;;;;;;5055462;28;20305;-85
2022/04/22 10:30:07;;;;;;;15.05;13.45;;;9.90;99.90;;;;;;5055566;28;20194;-86
2022/04/22 10:32:39;;;;;;;14.35;13.05;;;9.90;99.90;;;;;;5055717;28;20252;-86
2022/04/22 10:35:08;;;;;;;14.10;12.70;;;10.00;99.90;;;;;;5055007;28;20225;-86
2022/04/22 10:37:38;;;;;;;15.25;13.85;;;10.00;99.90;;;;;;5055040;28;20198;-85
2022/04/22 10:40:18;;;;;;;20.08;15.15;;;10.00;99.90;;;;;;5055042;28;20259;-86
2022/04/22 10:42:47;;;;;;;15.80;13.98;;;10.00;99.90;;;;;;5035876;28;20226;-86
2022/04/22 10:48:19;;;;;;;15.35;13.80;;;9.90;99.90;;;;;;5074559;28;20225;-86
2022/04/22 10:50:58;;;;;;;14.82;13.32;;;9.90;99.90;;;;;;5052778;28;20202;-86
2022/04/22 10:53:28;;;;;;;14.52;12.95;;;9.90;99.90;;;;;;5055817;28;20206;-85
2022/04/22 10:56:33;;;;;;;15.63;14.10;;;9.80;99.90;;;;;;5055595;28;20210;-85
2022/04/22 10:59:32;;;;;;;13.60;12.30;;;9.90;99.90;;;;;;5035541;28;20213;-85
2022/04/22 11:02:30;;;;;;;14.98;13.43;;;9.80;99.90;;;;;;5035215;28;20231;-85
2022/04/22 11:05:36;;;;;;;16.55;12.35;;;9.80;99.90;;;;;;5035455;28;20232;-86
2022/04/22 11:08:07;;;;;;;15.88;13.95;;;9.70;99.90;;;;;;5040390;28;20222;-85
2022/04/22 11:11:05;;;;;;;15.43;13.30;;;9.70;99.90;;;;;;5053562;28;20243;-84
2022/04/22 11:13:40;;;;;;;15.07;13.13;;;9.80;99.90;;;;;;5054988;28;20221;-83
2022/04/22 11:16:13;;;;;;;13.38;12.07;;;9.80;99.90;;;;;;5054775;28;20251;-86
2022/04/22 11:18:43;;;;;;;13.32;12.23;;;9.80;99.90;;;;;;5054650;28;20206;-86
2022/04/22 11:21:35;;;;;;;15.05;13.50;;;9.70;99.90;;;;;;5054226;28;20257;-86
2022/04/22 11:24:14;;;;;;;13.07;11.88;;;9.70;99.90;;;;;;5054583;28;20274;-88
2022/04/22 11:26:44;;;;;;;13.18;11.98;;;9.70;99.90;;;;;;5054519;28;20205;-86
2022/04/22 11:29:16;;;;;;;14.70;12.93;;;9.70;99.90;;;;;;5054194;28;20274;-86
2022/04/22 11:31:58;;;;;;;12.90;11.70;;;9.70;99.90;;;;;;5060882;28;20229;-83
2022/04/22 11:34:55;;;;;;;12.85;11.55;;;9.60;99.90;;;;;;5054624;28;20201;-83
2022/04/22 11:37:24;;;;;;;13.85;12.40;;;9.60;99.90;;;;;;5069869;28;20194;-83
2022/04/22 11:39:53;;;;;;;12.13;11.07;;;9.60;99.90;;;;;;5054333;28;20202;-83
2022/04/22 11:42:22;;;;;;;13.23;11.90;;;9.60;99.90;;;;;;5054285;28;20302;-83
2022/04/22 11:45:09;;;;;;;14.30;12.73;;;9.60;99.90;;;;;;5054078;28;20226;-83
2022/04/22 11:47:37;;;;;;;14.27;12.95;;;9.60;99.90;;;;;;5051335;28;20205;-83
2022/04/22 11:50:08;;;;;;;14.25;12.82;;;9.60;99.90;;;;;;5053598;28;20210;-83
2022/04/22 11:52:37;;;;;;;12.50;11.20;;;9.60;99.90;;;;;;5053564;28;20225;-83
2022/04/22 11:55:07;;;;;;;13.43;12.25;;;9.70;99.90;;;;;;5054155;28;20202;-83
2022/04/22 11:57:37;;;;;;;13.57;12.32;;;9.60;99.90;;;;;;5057439;28;20194;-84
2022/04/22 12:05:43;;;;;;;12.88;11.68;;;9.60;99.90;;;;;;5034896;28;20206;-83
2022/04/22 12:08:14;;;;;;;12.95;11.40;;;9.60;99.90;;;;;;5051868;28;20251;-83
2022/04/22 12:10:46;;;;;;;11.88;10.73;;;9.60;99.90;;;;;;5054294;28;20279;-83
2022/04/22 12:13:16;;;;;;;12.95;11.70;;;9.60;99.90;;;;;;5054711;28;20307;-83
2022/04/22 12:15:48;;;;;;;12.23;11.00;;;9.60;99.90;;;;;;5055152;28;20208;-83
2022/04/22 12:18:34;;;;;;;12.07;11.00;;;9.60;99.90;;;;;;5054528;28;20202;-83
2022/04/22 12:21:04;;;;;;;14.23;12.82;;;9.70;99.90;;;;;;5073586;28;20221;-83
2022/04/22 12:23:38;;;;;;;12.93;11.75;;;9.70;99.90;;;;;;5065835;28;20264;-83
2022/04/22 12:26:07;;;;;;;12.70;11.55;;;9.70;99.90;;;;;;5054239;28;20240;-83
2022/04/22 12:28:35;;;;;;;13.38;12.18;;;9.80;99.90;;;;;;5055612;28;20226;-83
2022/04/22 12:31:05;;;;;;;17.35;11.50;;;9.80;99.90;;;;;;5054574;28;20264;-83
2022/04/22 12:33:34;;;;;;;13.75;12.38;;;9.80;99.90;;;;;;5055151;28;20210;-83
2022/04/22 12:36:07;;;;;;;13.73;12.32;;;9.80;99.90;;;;;;5064555;28;20213;-83
2022/04/22 12:38:37;;;;;;;13.90;12.50;;;9.90;99.90;;;;;;5074241;28;20228;-83
2022/04/22 12:41:18;;;;;;;12.63;11.45;;;9.90;99.90;;;;;;5073262;28;20275;-83
2022/04/22 12:43:50;;;;;;;12.77;11.60;;;9.90;99.90;;;;;;5073923;28;20244;-83
2022/04/22 12:52:23;;;;;;;11.60;10.70;;;9.90;99.90;;;;;;5057071;28;20252;-83
2022/04/22 12:55:01;;;;;;;12.30;11.10;;;9.90;99.90;;;;;;5048394;28;20202;-83
2022/04/22 12:57:29;;;;;;;11.40;10.38;;;10.00;99.90;;;;;;5050664;28;20290;-83
2022/04/22 12:59:58;;;;;;;14.88;12.00;;;10.00;99.90;;;;;;5053268;28;20205;-83
2022/04/22 13:02:48;;;;;;;13.85;11.73;;;10.00;99.90;;;;;;5053187;28;20229;-83
2022/04/22 13:05:19;;;;;;;14.48;11.75;;;9.90;99.90;;;;;;5072792;28;20235;-82
2022/04/22 13:07:49;;;;;;;11.70;10.15;;;9.90;99.90;;;;;;5063604;28;20279;-82
2022/04/22 13:10:21;;;;;;;16.50;11.98;;;9.90;99.90;;;;;;5052690;28;20233;-82
2022/04/22 13:12:50;;;;;;;12.70;11.40;;;9.80;99.90;;;;;;5052850;28;20225;-83
2022/04/22 13:15:20;;;;;;;10.27;9.43;;;9.80;99.90;;;;;;5056397;28;20219;-83
2022/04/22 13:17:53;;;;;;;12.00;10.90;;;9.80;99.90;;;;;;5073086;28;20213;-83
2022/04/22 13:20:22;;;;;;;10.73;9.85;;;9.70;99.90;;;;;;5069159;28;20202;-83
2022/04/22 13:22:51;;;;;;;10.15;9.15;;;9.70;99.90;;;;;;5053005;28;20283;-83
2022/04/22 13:25:21;;;;;;;11.55;10.27;;;9.60;99.90;;;;;;5052811;28;20305;-83
2022/04/22 13:27:50;;;;;;;11.93;10.80;;;9.60;99.90;;;;;;5053129;28;20213;-83
2022/04/22 13:30:18;;;;;;;11.95;10.63;;;9.50;99.90;;;;;;5052571;28;20213;-83
2022/04/22 13:32:47;;;;;;;10.02;9.23;;;9.50;99.90;;;;;;5052311;28;20241;-83
2022/04/22 13:35:17;;;;;;;10.88;9.93;;;9.50;99.90;;;;;;5066851;28;20258;-83
2022/04/22 13:37:45;;;;;;;11.90;10.80;;;9.50;99.90;;;;;;5057437;28;20289;-83
2022/04/22 13:40:14;;;;;;;10.88;9.73;;;9.50;99.90;;;;;;5052672;28;20232;-83
2022/04/22 13:42:42;;;;;;;10.88;10.07;;;9.50;99.90;;;;;;5053054;28;20245;-83
2022/04/22 13:53:29;;;;;;;11.13;10.20;;;9.50;99.90;;;;;;5047147;28;20285;-88
2022/04/22 13:55:58;;;;;;;11.95;10.73;;;9.50;99.90;;;;;;5052329;28;20288;-85
2022/04/22 13:58:26;;;;;;;15.45;12.18;;;9.60;99.90;;;;;;5033289;28;20202;-89
2022/04/22 14:00:55;;;;;;;11.73;10.52;;;9.60;99.90;;;;;;5052307;28;20256;-87
2022/04/22 14:03:23;;;;;;;11.73;10.65;;;9.60;99.90;;;;;;5052837;28;20202;-87
2022/04/22 14:05:53;;;;;;;11.15;10.25;;;9.60;99.90;;;;;;5052007;28;20226;-87
2022/04/22 14:08:21;;;;;;;12.00;10.80;;;9.60;99.90;;;;;;5052930;28;20206;-87
2022/04/22 14:10:49;;;;;;;11.32;10.25;;;9.60;99.90;;;;;;5052153;28;20225;-87
2022/04/22 14:13:18;;;;;;;13.18;10.52;;;9.60;99.90;;;;;;5052492;28;20206;-87
2022/04/22 14:15:47;;;;;;;12.48;10.25;;;9.60;99.90;;;;;;5052045;28;20233;-87